createdAt,value
2022-12-25T00:00:24.974Z,100023.19
2022-12-25T00:02:53.387Z,100038.16
2022-12-25T00:05:22.101Z,100030.19
2022-12-25T00:07:50.453Z,100025.00
2022-12-25T00:10:18.976Z,100033.63
2022-12-25T00:12:47.285Z,100040.28
2022-12-25T00:15:15.624Z,100043.38
2022-12-25T00:17:43.940Z,100044.97
2022-12-25T00:20:12.393Z,100044.84
2022-12-25T00:22:40.686Z,100053.53
2022-12-25T00:25:09.362Z,100057.41
2022-12-25T00:27:38.808Z,100049.44
2022-12-25T00:30:08.857Z,100060.84
2022-12-25T00:32:38.456Z,100063.94
2022-12-25T00:35:07.356Z,100066.28
2022-12-25T00:37:35.664Z,100062.72
2022-12-25T00:40:03.964Z,100078.03
2022-12-25T00:42:32.283Z,100081.91
2022-12-25T00:45:02.291Z,100098.84
2022-12-25T00:47:31.595Z,100086.91
2022-12-25T00:49:59.913Z,100093.09
2022-12-25T00:52:28.215Z,100106.00
2022-12-25T00:54:56.522Z,100108.22
2022-12-25T00:57:24.856Z,100112.78
2022-12-25T00:59:53.279Z,100109.44
2022-12-25T01:02:24.664Z,100118.78
2022-12-25T01:04:57.905Z,100115.03
2022-12-25T01:07:27.788Z,100123.13
2022-12-25T01:10:14.412Z,100127.69
2022-12-25T01:12:44.182Z,100133.44
2022-12-25T01:15:13.877Z,100134.47
2022-12-25T01:17:43.494Z,100134.69
2022-12-25T01:20:13.468Z,100142.81
2022-12-25T01:22:41.989Z,100139.03
2022-12-25T01:25:11.568Z,100157.81
2022-12-25T01:27:41.901Z,100154.03
2022-12-25T01:30:10.851Z,100160.91
2022-12-25T01:32:39.352Z,100161.88
2022-12-25T01:35:08.071Z,100164.00
2022-12-25T01:37:36.362Z,100171.31
2022-12-25T01:40:05.513Z,100177.41
2022-12-25T01:42:33.827Z,100170.09
2022-12-25T01:45:40.064Z,100177.75
2022-12-25T01:48:15.844Z,100178.28
2022-12-25T01:50:48.873Z,100176.03
2022-12-25T01:53:17.387Z,100184.94
2022-12-25T01:55:47.161Z,100183.16
2022-12-25T01:58:16.499Z,100178.13
2022-12-25T02:00:45.381Z,100187.78
2022-12-25T02:03:15.325Z,100187.84
2022-12-25T02:05:43.833Z,100182.03
2022-12-25T02:08:16.088Z,100195.97
2022-12-25T02:10:45.731Z,100192.97
2022-12-25T02:13:19.492Z,100185.47
2022-12-25T02:16:14.425Z,100181.97
2022-12-25T02:18:42.751Z,100188.06
2022-12-25T02:21:11.000Z,100185.50
2022-12-25T02:24:11.517Z,100185.53
2022-12-25T02:26:57.766Z,100183.59
2022-12-25T02:29:49.371Z,100185.19
2022-12-25T02:32:25.805Z,100188.00
2022-12-25T02:35:13.948Z,100197.97
2022-12-25T02:37:45.389Z,100195.97
2022-12-25T02:40:27.469Z,100191.22
2022-12-25T02:43:18.981Z,100184.91
2022-12-25T02:46:14.592Z,100189.63
2022-12-25T02:49:16.314Z,100179.25
2022-12-25T02:52:18.639Z,100181.16
2022-12-25T02:55:21.542Z,100175.13
2022-12-25T02:58:16.929Z,100184.28
2022-12-25T03:01:08.181Z,100176.84
2022-12-25T03:04:00.156Z,100171.56
2022-12-25T03:06:45.166Z,100165.25
2022-12-25T03:09:46.403Z,100169.56
2022-12-25T03:12:25.354Z,100155.63
2022-12-25T03:15:12.089Z,100156.88
2022-12-25T03:17:40.507Z,100154.53
2022-12-25T03:20:45.140Z,100147.84
2022-12-25T03:23:34.993Z,100144.72
2022-12-25T03:26:21.636Z,100132.50
2022-12-25T03:28:49.929Z,100132.91
2022-12-25T03:31:21.336Z,100130.09
2022-12-25T03:34:35.487Z,100127.28
2022-12-25T03:37:46.810Z,100127.69
2022-12-25T03:41:16.971Z,100131.22
2022-12-25T03:44:42.893Z,100118.47
2022-12-25T03:47:44.395Z,100121.69
2022-12-25T03:50:49.620Z,100121.63
2022-12-25T03:53:44.046Z,100105.28
2022-12-25T03:56:32.002Z,100101.69
2022-12-25T03:59:23.611Z,100101.78
2022-12-25T04:02:31.453Z,100104.00
2022-12-25T04:05:18.045Z,100102.88
2022-12-25T04:08:04.842Z,100097.72
2022-12-25T04:10:51.727Z,100100.91
2022-12-25T04:13:38.344Z,100103.31
2022-12-25T04:16:25.326Z,100090.25
2022-12-25T04:19:11.862Z,100087.53
2022-12-25T04:21:58.517Z,100085.91
2022-12-25T04:24:45.184Z,100071.53
2022-12-25T04:27:31.653Z,100067.59
2022-12-25T04:30:18.213Z,100055.53
2022-12-25T04:33:04.781Z,100056.38
2022-12-25T04:35:51.333Z,100051.94
2022-12-25T04:38:21.834Z,100047.53
2022-12-25T04:40:50.143Z,100048.66
2022-12-25T04:43:18.497Z,100039.56
2022-12-25T04:45:54.595Z,100033.75
2022-12-25T04:48:23.597Z,100024.66
2022-12-25T04:50:51.913Z,100018.13
2022-12-25T04:53:20.535Z,100009.03
2022-12-25T04:55:48.866Z,100005.78
2022-12-25T04:58:17.160Z,99992.84
2022-12-25T05:00:45.535Z,99992.41
2022-12-25T05:03:13.950Z,99990.47
2022-12-25T05:05:42.424Z,99978.56
2022-12-25T05:08:10.790Z,99973.78
2022-12-25T05:10:41.764Z,99969.81
2022-12-25T05:13:10.106Z,99960.22
2022-12-25T05:15:41.570Z,99960.28
2022-12-25T05:18:09.973Z,99947.88
2022-12-25T05:20:40.412Z,99934.69
2022-12-25T05:23:12.913Z,99929.13
2022-12-25T05:25:41.989Z,99922.06
2022-12-25T05:28:10.732Z,99929.47
2022-12-25T05:30:39.051Z,99908.09
2022-12-25T05:33:07.741Z,99918.03
2022-12-25T05:35:41.133Z,99911.44
2022-12-25T05:38:10.046Z,99909.66
2022-12-25T05:40:41.827Z,99898.72
2022-12-25T05:43:10.373Z,99895.41
2022-12-25T05:45:38.727Z,99888.03
2022-12-25T05:48:07.257Z,99884.50
2022-12-25T05:50:38.573Z,99877.91
2022-12-25T05:53:11.267Z,99870.81
2022-12-25T05:55:41.968Z,99882.09
2022-12-25T05:58:10.896Z,99874.22
2022-12-25T06:00:39.619Z,99857.16
2022-12-25T06:03:08.133Z,99849.28
2022-12-25T06:05:40.517Z,99844.97
2022-12-25T06:08:09.023Z,99835.81
2022-12-25T06:10:37.782Z,99837.88
2022-12-25T06:13:06.223Z,99831.53
2022-12-25T06:15:34.946Z,99829.50
2022-12-25T06:18:03.299Z,99816.50
2022-12-25T06:20:31.675Z,99812.94
2022-12-25T06:23:00.177Z,99821.88
2022-12-25T06:25:28.593Z,99812.97
2022-12-25T06:27:56.917Z,99803.56
2022-12-25T06:30:25.332Z,99801.00
2022-12-25T06:32:53.692Z,99797.69
2022-12-25T06:35:22.001Z,99794.66
2022-12-25T06:37:50.310Z,99781.94
2022-12-25T06:40:18.904Z,99792.41
2022-12-25T06:42:47.199Z,99776.59
2022-12-25T06:45:15.543Z,99770.50
2022-12-25T06:47:44.003Z,99770.50
2022-12-25T06:50:12.390Z,99763.34
2022-12-25T06:52:40.696Z,99758.25
2022-12-25T06:55:09.420Z,99753.66
2022-12-25T06:57:37.724Z,99744.97
2022-12-25T07:00:07.707Z,99744.19
2022-12-25T07:02:39.448Z,99745.47
2022-12-25T07:05:08.227Z,99738.09
2022-12-25T07:07:36.518Z,99739.13
2022-12-25T07:10:04.938Z,99734.25
2022-12-25T07:12:33.340Z,99726.84
2022-12-25T07:15:01.715Z,99730.69
2022-12-25T07:17:30.060Z,99723.28
2022-12-25T07:19:58.596Z,99718.41
2022-12-25T07:22:26.939Z,99713.31
2022-12-25T07:24:55.235Z,99713.56
2022-12-25T07:27:23.732Z,99713.03
2022-12-25T07:29:52.033Z,99713.03
2022-12-25T07:32:20.349Z,99701.53
2022-12-25T07:34:48.705Z,99703.09
2022-12-25T07:37:17.036Z,99701.56
2022-12-25T07:39:45.348Z,99703.88
2022-12-25T07:42:13.664Z,99694.16
2022-12-25T07:44:41.977Z,99698.50
2022-12-25T07:47:10.288Z,99696.22
2022-12-25T07:49:38.594Z,99708.19
2022-12-25T07:52:06.905Z,99709.75
2022-12-25T07:54:35.191Z,99702.84
2022-12-25T07:57:03.478Z,99705.66
2022-12-25T07:59:31.783Z,99700.81
2022-12-25T08:02:00.254Z,99710.00
2022-12-25T08:04:28.662Z,99702.88
2022-12-25T08:06:57.006Z,99695.72
2022-12-25T08:09:25.406Z,99699.53
2022-12-25T08:11:53.689Z,99695.47
2022-12-25T08:14:22.034Z,99693.66
2022-12-25T08:16:50.366Z,99697.75
2022-12-25T08:19:18.771Z,99697.00
2022-12-25T08:21:47.088Z,99692.66
2022-12-25T08:24:15.441Z,99695.97
2022-12-25T08:26:43.810Z,99686.78
2022-12-25T08:29:12.150Z,99688.31
2022-12-25T08:31:46.094Z,99687.81
2022-12-25T08:34:15.511Z,99690.88
2022-12-25T08:36:43.888Z,99688.81
2022-12-25T08:39:12.201Z,99690.09
2022-12-25T08:41:41.204Z,99691.38
2022-12-25T08:44:09.708Z,99692.91
2022-12-25T08:46:38.172Z,99684.22
2022-12-25T08:49:06.839Z,99697.00
2022-12-25T08:51:35.271Z,99696.72
2022-12-25T08:54:03.575Z,99691.63
2022-12-25T08:56:32.522Z,99687.03
2022-12-25T08:59:00.827Z,99687.56
2022-12-25T09:01:29.258Z,99693.41
2022-12-25T09:03:57.671Z,99692.38
2022-12-25T09:06:25.984Z,99691.84
2022-12-25T09:08:54.318Z,99686.72
2022-12-25T09:11:23.302Z,99684.69
2022-12-25T09:13:51.734Z,99686.72
2022-12-25T09:16:23.085Z,99681.38
2022-12-25T09:18:51.901Z,99683.63
2022-12-25T09:21:20.678Z,99693.06
2022-12-25T09:23:49.290Z,99687.19
2022-12-25T09:26:19.394Z,99691.03
2022-12-25T09:28:51.998Z,99684.41
2022-12-25T09:31:22.602Z,99682.59
2022-12-25T09:33:52.370Z,99689.75
2022-12-25T09:36:24.113Z,99686.41
2022-12-25T09:38:53.608Z,99685.88
2022-12-25T09:41:24.609Z,99688.91
2022-12-25T09:44:11.572Z,99694.53
2022-12-25T09:46:52.367Z,99703.69
2022-12-25T09:49:28.449Z,99698.06
2022-12-25T09:52:04.899Z,99698.00
2022-12-25T09:57:34.806Z,99704.81
2022-12-25T10:00:03.261Z,99704.81
2022-12-25T10:03:12.042Z,99701.22
2022-12-25T10:05:53.619Z,99712.88
2022-12-25T10:08:43.052Z,99706.47
2022-12-25T10:11:41.808Z,99711.28
2022-12-25T10:14:43.888Z,99714.56
2022-12-25T10:17:24.292Z,99715.75
2022-12-25T10:20:23.390Z,99718.03
2022-12-25T10:22:55.948Z,99715.69
2022-12-25T10:25:26.407Z,99719.97
2022-12-25T10:28:01.037Z,99718.41
2022-12-25T10:30:30.846Z,99723.16
2022-12-25T10:32:59.872Z,99730.00
2022-12-25T10:35:30.498Z,99725.13
2022-12-25T10:38:07.514Z,99722.78
2022-12-25T10:41:16.648Z,99738.00
2022-12-25T10:43:55.023Z,99739.66
2022-12-25T10:46:27.901Z,99749.28
2022-12-25T10:49:00.195Z,99750.22
2022-12-25T10:51:39.468Z,99754.66
2022-12-25T10:54:38.797Z,99758.38
2022-12-25T10:57:09.847Z,99756.53
2022-12-25T10:59:58.562Z,99764.00
2022-12-25T11:02:32.824Z,99768.19
2022-12-25T11:05:15.205Z,99768.63
2022-12-25T11:07:55.115Z,99770.00
2022-12-25T11:10:26.461Z,99761.75
2022-12-25T11:12:55.622Z,99761.84
2022-12-25T11:15:43.974Z,99764.00
2022-12-25T11:18:22.242Z,99765.38
2022-12-25T11:21:01.950Z,99773.38
2022-12-25T11:23:32.575Z,99771.47
2022-12-25T11:26:07.182Z,99779.94
2022-12-25T11:28:38.234Z,99784.41
2022-12-25T11:31:20.261Z,99780.91
2022-12-25T11:33:54.788Z,99790.16
2022-12-25T11:36:40.218Z,99793.31
2022-12-25T11:39:30.611Z,99799.25
2022-12-25T11:42:20.300Z,99798.88
2022-12-25T11:44:48.570Z,99800.78
2022-12-25T11:47:25.015Z,99806.75
2022-12-25T11:50:21.357Z,99812.69
2022-12-25T11:52:50.754Z,99803.16
2022-12-25T11:55:50.417Z,99806.31
2022-12-25T11:58:18.684Z,99818.59
2022-12-25T12:00:51.255Z,99824.38
2022-12-25T12:03:32.110Z,99825.78
2022-12-25T12:06:30.001Z,99830.47
2022-12-25T12:09:37.363Z,99826.00
2022-12-25T12:12:43.098Z,99837.22
2022-12-25T12:15:44.929Z,99839.53
2022-12-25T12:18:25.333Z,99847.50
2022-12-25T12:21:08.566Z,99848.91
2022-12-25T12:24:02.856Z,99852.81
2022-12-25T12:26:38.949Z,99864.56
2022-12-25T12:29:21.988Z,99862.44
2022-12-25T12:31:52.310Z,99874.22
2022-12-25T12:34:31.997Z,99877.16
2022-12-25T12:37:29.225Z,99884.16
2022-12-25T12:39:58.680Z,99886.34
2022-12-25T12:42:35.309Z,99896.84
2022-12-25T12:45:21.854Z,99891.72
2022-12-25T12:47:51.771Z,99899.00
2022-12-25T12:50:38.731Z,99895.16
2022-12-25T12:53:25.639Z,99899.66
2022-12-25T12:55:54.151Z,99904.59
2022-12-25T12:58:34.483Z,99914.94
2022-12-25T13:01:20.421Z,99913.09
2022-12-25T13:04:07.348Z,99921.13
2022-12-25T13:06:44.980Z,99925.63
2022-12-25T13:09:22.869Z,99929.66
2022-12-25T13:11:51.698Z,99931.34
2022-12-25T13:14:25.806Z,99935.81
2022-12-25T13:16:55.967Z,99933.97
2022-12-25T13:19:29.780Z,99932.59
2022-12-25T13:22:04.248Z,99932.75
2022-12-25T13:24:38.189Z,99939.69
2022-12-25T13:27:27.652Z,99947.44
2022-12-25T13:29:56.243Z,99946.81
2022-12-25T13:32:33.745Z,99949.72
2022-12-25T13:35:02.465Z,99955.44
2022-12-25T13:37:32.561Z,99960.69
2022-12-25T13:40:07.709Z,99956.53
2022-12-25T13:42:40.750Z,99958.22
2022-12-25T13:45:23.312Z,99961.94
2022-12-25T13:47:55.400Z,99959.31
2022-12-25T13:50:33.161Z,99970.91
2022-12-25T13:53:19.037Z,99971.81
2022-12-25T13:55:55.858Z,99972.28
2022-12-25T13:58:34.866Z,99974.41
2022-12-25T14:01:04.444Z,99982.91
2022-12-25T14:03:44.117Z,99988.59
2022-12-25T14:06:23.124Z,99988.75
2022-12-25T14:08:52.228Z,99990.44
2022-12-25T14:11:24.165Z,99995.69
2022-12-25T14:14:05.219Z,99994.59
2022-12-25T14:16:34.897Z,99992.41
2022-12-25T14:19:04.517Z,99996.84
2022-12-25T14:21:50.210Z,99991.13
2022-12-25T14:24:27.254Z,99988.50
2022-12-25T14:27:05.048Z,99989.41
2022-12-25T14:29:41.168Z,99990.78
2022-12-25T14:32:20.177Z,99986.91
2022-12-25T14:34:52.342Z,99993.06
2022-12-25T14:37:27.569Z,99986.09
2022-12-25T14:39:58.517Z,99987.78
2022-12-25T14:42:33.092Z,99989.13
2022-12-25T14:45:29.252Z,99990.06
2022-12-25T14:48:05.111Z,99985.41
2022-12-25T14:50:38.287Z,99986.31
2022-12-25T14:53:19.411Z,99986.78
2022-12-25T14:55:54.003Z,99984.47
2022-12-25T14:58:26.837Z,99989.69
2022-12-25T15:01:04.329Z,99997.72
2022-12-25T15:03:37.797Z,99993.81
2022-12-25T15:06:21.452Z,99994.28
2022-12-25T15:09:03.249Z,99995.19
2022-12-25T15:11:31.804Z,100000.72
2022-12-25T15:14:00.211Z,99998.41
2022-12-25T15:16:41.903Z,99996.88
2022-12-25T15:19:20.572Z,100000.56
2022-12-25T15:21:53.539Z,99998.22
2022-12-25T15:24:21.851Z,100001.13
2022-12-25T15:26:50.163Z,100003.28
2022-12-25T15:29:32.163Z,100010.50
2022-12-25T15:32:06.791Z,100003.88
2022-12-25T15:34:35.102Z,100005.50
2022-12-25T15:37:03.409Z,100004.06
2022-12-25T15:39:31.877Z,100007.75
2022-12-25T15:42:27.597Z,100011.75
2022-12-25T15:44:56.024Z,100007.56
2022-12-25T15:47:24.346Z,99996.59
2022-12-25T15:49:52.693Z,100005.38
2022-12-25T15:52:20.979Z,100001.94
2022-12-25T15:54:49.283Z,100000.09
2022-12-25T15:57:22.334Z,100001.41
2022-12-25T15:59:50.639Z,100003.84
2022-12-25T16:02:21.656Z,99997.66
2022-12-25T16:04:51.920Z,99993.78
2022-12-25T16:07:25.894Z,99999.00
2022-12-25T16:09:54.401Z,100005.47
2022-12-25T16:12:23.160Z,100003.59
2022-12-25T16:14:51.516Z,100005.25
2022-12-25T16:17:19.945Z,99995.50
2022-12-25T16:19:48.395Z,100001.50
2022-12-25T16:22:26.536Z,100003.16
2022-12-25T16:24:55.035Z,100005.63
2022-12-25T16:27:23.479Z,100009.59
2022-12-25T16:29:51.783Z,100019.59
2022-12-25T16:32:20.077Z,100012.50
2022-12-25T16:34:50.263Z,100006.63
2022-12-25T16:37:18.566Z,100014.19
2022-12-25T16:39:47.237Z,100018.63
2022-12-25T16:42:15.625Z,100014.75
2022-12-25T16:44:43.996Z,100018.75
2022-12-25T16:47:12.317Z,100008.09
2022-12-25T16:49:40.703Z,100012.09
2022-12-25T16:52:09.036Z,100010.53
2022-12-25T16:54:37.392Z,100007.00
2022-12-25T16:57:05.757Z,100013.75
2022-12-25T16:59:34.130Z,100007.78
2022-12-25T17:02:02.578Z,100009.00
2022-12-25T17:04:31.050Z,100015.75
2022-12-25T17:06:59.341Z,100016.22
2022-12-25T17:09:27.675Z,100011.97
2022-12-25T17:11:55.960Z,100010.44
2022-12-25T17:14:26.142Z,100004.56
2022-12-25T17:16:54.488Z,99997.91
2022-12-25T17:19:24.851Z,100005.13
2022-12-25T17:21:55.678Z,100001.22
2022-12-25T17:24:24.126Z,100003.34
2022-12-25T17:26:52.459Z,100007.78
2022-12-25T17:29:22.591Z,100003.13
2022-12-25T17:31:51.783Z,100000.81
2022-12-25T17:34:20.528Z,100000.44
2022-12-25T17:36:49.094Z,99997.34
2022-12-25T17:39:17.420Z,99996.56
2022-12-25T17:41:45.961Z,99994.25
2022-12-25T17:44:14.258Z,99993.47
2022-12-25T17:46:43.059Z,99991.91
2022-12-25T17:49:16.506Z,99991.91
2022-12-25T17:51:45.329Z,99993.13
2022-12-25T17:54:14.248Z,99993.59
2022-12-25T17:56:42.536Z,99992.47
2022-12-25T17:59:19.144Z,99988.16
2022-12-25T18:01:49.146Z,99990.59
2022-12-25T18:04:17.770Z,99995.81
2022-12-25T18:06:46.205Z,99992.72
2022-12-25T18:09:14.763Z,99988.41
2022-12-25T18:11:44.532Z,99980.53
2022-12-25T18:14:16.986Z,99982.97
2022-12-25T18:16:46.767Z,99986.97
2022-12-25T18:19:16.691Z,99982.63
2022-12-25T18:21:45.213Z,99977.19
2022-12-25T18:24:13.751Z,99979.94
2022-12-25T18:26:42.199Z,99974.84
2022-12-25T18:29:10.526Z,99972.53
2022-12-25T18:31:39.002Z,99969.00
2022-12-25T18:34:07.350Z,99973.75
2022-12-25T18:36:35.688Z,99962.34
2022-12-25T18:39:04.091Z,99959.56
2022-12-25T18:41:32.385Z,99965.56
2022-12-25T18:44:01.261Z,99958.03
2022-12-25T18:46:30.021Z,99965.13
2022-12-25T18:48:58.640Z,99958.03
2022-12-25T18:51:33.091Z,99969.88
2022-12-25T18:54:04.983Z,99960.78
2022-12-25T18:56:33.694Z,99968.31
2022-12-25T18:59:02.024Z,99957.25
2022-12-25T19:01:30.560Z,99958.03
2022-12-25T19:04:04.739Z,99948.16
2022-12-25T19:06:34.442Z,99949.72
2022-12-25T19:09:09.909Z,99947.72
2022-12-25T19:11:46.622Z,99948.50
2022-12-25T19:14:15.565Z,99951.25
2022-12-25T19:16:44.197Z,99946.50
2022-12-25T19:19:12.928Z,99935.88
2022-12-25T19:21:41.819Z,99942.97
2022-12-25T19:24:10.173Z,99939.41
2022-12-25T19:26:38.637Z,99941.84
2022-12-25T19:29:06.990Z,99936.75
2022-12-25T19:31:36.095Z,99938.44
2022-12-25T19:34:04.710Z,99924.69
2022-12-25T19:36:33.404Z,99933.44
2022-12-25T19:39:02.018Z,99931.56
2022-12-25T19:41:30.336Z,99928.47
2022-12-25T19:43:58.625Z,99929.34
2022-12-25T19:46:33.319Z,99924.22
2022-12-25T19:49:05.161Z,99922.69
2022-12-25T19:51:37.004Z,99924.34
2022-12-25T19:54:07.386Z,99919.69
2022-12-25T19:56:36.558Z,99923.34
2022-12-25T19:59:04.900Z,99913.94
2022-12-25T20:01:34.301Z,99909.28
2022-12-25T20:04:02.931Z,99907.41
2022-12-25T20:06:34.371Z,99910.19
2022-12-25T20:09:06.030Z,99911.06
2022-12-25T20:11:36.239Z,99908.75
2022-12-25T20:14:05.968Z,99908.75
2022-12-25T20:16:34.553Z,99909.19
2022-12-25T20:19:02.948Z,99912.41
2022-12-25T20:21:31.245Z,99905.28
2022-12-25T20:24:00.493Z,99905.28
2022-12-25T20:26:33.012Z,99906.50
2022-12-25T20:29:01.381Z,99906.16
2022-12-25T20:31:32.557Z,99905.38
2022-12-25T20:34:05.784Z,99905.03
2022-12-25T20:36:37.565Z,99909.44
2022-12-25T20:39:10.458Z,99915.88
2022-12-25T20:41:39.600Z,99918.63
2022-12-25T20:44:10.970Z,99918.31
2022-12-25T20:46:39.471Z,99921.50
2022-12-25T20:49:07.930Z,99914.44
2022-12-25T20:51:36.529Z,99906.56
2022-12-25T20:54:08.727Z,99913.75
2022-12-25T20:56:37.895Z,99913.88
2022-12-25T20:59:06.188Z,99913.97
2022-12-25T21:01:34.621Z,99914.81
2022-12-25T21:04:03.134Z,99922.00
2022-12-25T21:06:31.459Z,99926.78
2022-12-25T21:08:59.823Z,99924.44
2022-12-25T21:11:28.269Z,99926.88
2022-12-25T21:13:56.615Z,99922.13
2022-12-25T21:16:26.179Z,99928.09
2022-12-25T21:18:55.554Z,99929.75
2022-12-25T21:21:23.949Z,99926.19
2022-12-25T21:23:52.544Z,99932.94
2022-12-25T21:26:23.964Z,99933.38
2022-12-25T21:28:54.947Z,99942.91
2022-12-25T21:31:23.809Z,99945.66
2022-12-25T21:33:52.610Z,99949.63
2022-12-25T21:36:24.819Z,99951.28
2022-12-25T21:38:55.426Z,99948.97
2022-12-25T21:41:24.553Z,99947.50
2022-12-25T21:43:53.311Z,99954.66
2022-12-25T21:46:21.893Z,99951.56
2022-12-25T21:48:51.076Z,99953.22
2022-12-25T21:51:40.483Z,99954.88
2022-12-25T21:54:09.561Z,99961.59
2022-12-25T21:56:44.170Z,99959.28
2022-12-25T21:59:23.362Z,99958.16
2022-12-25T22:01:53.501Z,99964.13
2022-12-25T22:04:24.128Z,99971.22
2022-12-25T22:07:10.583Z,99973.97
2022-12-25T22:09:39.604Z,99973.97
2022-12-25T22:12:33.524Z,99969.22
2022-12-25T22:15:10.428Z,99962.13
2022-12-25T22:17:59.144Z,99966.78
2022-12-25T22:20:35.445Z,99964.81
2022-12-25T22:23:04.949Z,99967.56
2022-12-25T22:25:33.300Z,99966.34
2022-12-25T22:28:01.665Z,99962.03
2022-12-25T22:30:30.955Z,99966.78
2022-12-25T22:32:59.656Z,99968.78
2022-12-25T22:35:28.052Z,99966.44
2022-12-25T22:37:56.463Z,99972.41
2022-12-25T22:40:24.760Z,99979.16
2022-12-25T22:42:57.535Z,99978.81
2022-12-25T22:45:25.936Z,99976.50
2022-12-25T22:47:54.290Z,99975.38
2022-12-25T22:50:22.697Z,99981.78
2022-12-25T22:52:51.035Z,99985.75
2022-12-25T22:55:20.428Z,99985.38
2022-12-25T22:57:49.900Z,99987.81
2022-12-25T23:00:18.282Z,99985.47
2022-12-25T23:02:46.830Z,99990.66
2022-12-25T23:05:15.346Z,99988.31
2022-12-25T23:07:43.696Z,99986.00
2022-12-25T23:10:12.212Z,99986.44
2022-12-25T23:12:58.755Z,100001.03
2022-12-25T23:15:28.520Z,99992.38
2022-12-25T23:18:15.324Z,99991.63
2022-12-25T23:21:03.769Z,100000.69
2022-12-25T23:23:50.362Z,100002.66
2022-12-25T23:26:21.165Z,100015.72
2022-12-25T23:29:07.810Z,100017.69
2022-12-25T23:31:40.956Z,100027.19
2022-12-25T23:34:10.794Z,100029.19
2022-12-25T23:36:39.126Z,100029.19
2022-12-25T23:39:10.498Z,100034.34
2022-12-25T23:41:40.596Z,100034.34
2022-12-25T23:44:10.737Z,100039.09
2022-12-25T23:46:39.544Z,100038.00
2022-12-25T23:49:08.972Z,100039.97
2022-12-25T23:51:46.768Z,100040.31
2022-12-25T23:54:17.791Z,100039.88
2022-12-25T23:56:46.571Z,100043.78
2022-12-25T23:59:15.424Z,100048.88
